Time;durP1;ratioP1;P1;durP2;ratioP2;P2;SDS_P1;SDS_P2;PMS_P1;PMS_P2;Temp;Humidity;BMP_temperature;BMP_pressure;BME280_temperature;BME280_humidity;BME280_pressure;Samples;Min_cycle;Max_cycle;Signal;HPM_P1;HPM_P2
2022/06/29 00:00:20;;;;;;;5.38;4.60;;;20.90;99.90;;;;;;2115486;28;20193;-68
2022/06/29 00:01:23;;;;;;;4.90;4.50;;;20.90;99.90;;;;;;2116651;28;20722;-68
2022/06/29 00:02:24;;;;;;;4.80;4.40;;;20.90;99.90;;;;;;2116420;28;20024;-67
2022/06/29 00:03:25;;;;;;;5.10;4.70;;;20.90;99.90;;;;;;2114427;28;20046;-68
2022/06/29 00:04:25;;;;;;;5.13;4.63;;;20.90;99.90;;;;;;2112800;28;20047;-67
2022/06/29 00:05:27;;;;;;;5.28;4.78;;;20.90;99.90;;;;;;2112973;28;20031;-68
2022/06/29 00:06:27;;;;;;;4.95;4.55;;;20.90;99.90;;;;;;2113389;28;20028;-67
2022/06/29 00:07:28;;;;;;;5.40;4.72;;;20.80;99.90;;;;;;2113002;28;20023;-68
2022/06/29 00:08:29;;;;;;;4.72;4.32;;;20.80;99.90;;;;;;2112276;28;20054;-68
2022/06/29 00:09:30;;;;;;;4.88;4.47;;;20.80;99.90;;;;;;2112017;28;20488;-68
2022/06/29 00:10:30;;;;;;;5.35;4.78;;;20.80;99.90;;;;;;2112486;28;20508;-68
2022/06/29 00:11:31;;;;;;;4.88;4.43;;;20.80;99.90;;;;;;2112805;28;20112;-68
2022/06/29 00:12:33;;;;;;;5.03;4.63;;;20.80;99.90;;;;;;2113162;28;20024;-68
2022/06/29 00:13:33;;;;;;;4.53;4.20;;;20.70;99.90;;;;;;2112739;28;20488;-70
2022/06/29 00:14:41;;;;;;;4.45;4.15;;;20.70;99.90;;;;;;2112661;28;20140;-68
2022/06/29 00:15:42;;;;;;;4.50;4.20;;;20.70;99.90;;;;;;2112868;28;20020;-67
2022/06/29 00:16:42;;;;;;;4.47;4.07;;;20.70;99.90;;;;;;2112589;28;20023;-69
2022/06/29 00:17:44;;;;;;;4.90;4.45;;;20.70;99.90;;;;;;2112555;28;20119;-68
2022/06/29 00:18:44;;;;;;;4.75;4.35;;;20.70;99.90;;;;;;2111814;28;20027;-68
2022/06/29 00:19:45;;;;;;;4.65;4.35;;;20.70;99.90;;;;;;2103325;28;20032;-67
2022/06/29 00:20:46;;;;;;;4.60;4.20;;;20.70;99.90;;;;;;2112369;28;20040;-68
2022/06/29 00:21:46;;;;;;;4.72;4.32;;;20.60;99.90;;;;;;2112013;28;20080;-68
2022/06/29 00:22:48;;;;;;;4.45;4.15;;;20.60;99.90;;;;;;2112059;28;20111;-69
2022/06/29 00:23:49;;;;;;;4.53;4.13;;;20.60;99.90;;;;;;2112335;28;20036;-68
2022/06/29 00:24:50;;;;;;;4.72;4.32;;;20.60;99.90;;;;;;2112095;28;20055;-69
2022/06/29 00:25:51;;;;;;;4.55;4.20;;;20.60;99.90;;;;;;2112348;28;20019;-67
2022/06/29 00:26:51;;;;;;;4.57;4.25;;;20.60;99.90;;;;;;2112431;28;20032;-69
2022/06/29 00:27:52;;;;;;;4.70;4.20;;;20.60;99.90;;;;;;2114116;28;20023;-68
2022/06/29 00:28:53;;;;;;;4.72;4.28;;;20.60;99.90;;;;;;2113412;28;20055;-67
2022/06/29 00:29:54;;;;;;;4.35;3.97;;;20.60;99.90;;;;;;2113269;28;20154;-68
2022/06/29 00:30:54;;;;;;;4.60;4.20;;;20.60;99.90;;;;;;2114125;28;20492;-67
2022/06/29 00:31:55;;;;;;;4.90;4.50;;;20.60;99.90;;;;;;2114117;28;20031;-67
2022/06/29 00:32:56;;;;;;;4.50;4.10;;;20.60;99.90;;;;;;2105114;28;20023;-67
2022/06/29 00:33:57;;;;;;;4.68;4.38;;;20.60;99.90;;;;;;2105127;28;20032;-67
2022/06/29 00:34:59;;;;;;;6.70;4.03;;;20.60;99.90;;;;;;2113622;28;20465;-67
2022/06/29 00:35:59;;;;;;;5.03;4.63;;;20.60;99.90;;;;;;2113538;28;20103;-67
2022/06/29 00:37:01;;;;;;;4.90;4.50;;;20.60;99.90;;;;;;2113537;28;20043;-67
2022/06/29 00:38:01;;;;;;;4.60;4.20;;;20.60;99.90;;;;;;2113418;28;20093;-68
2022/06/29 00:39:02;;;;;;;4.72;4.32;;;20.60;99.90;;;;;;2113959;28;20027;-69
2022/06/29 00:40:04;;;;;;;4.90;4.50;;;20.60;99.90;;;;;;2113899;28;20043;-70
2022/06/29 00:41:05;;;;;;;4.55;4.22;;;20.60;99.90;;;;;;2114269;28;20024;-67
2022/06/29 00:42:09;;;;;;;4.88;4.47;;;20.60;99.90;;;;;;2114401;28;20107;-67
2022/06/29 00:43:10;;;;;;;5.00;4.50;;;20.60;99.90;;;;;;2114053;28;20039;-68
2022/06/29 00:44:18;;;;;;;4.63;4.20;;;20.60;99.90;;;;;;2114002;28;20531;-67
2022/06/29 00:45:19;;;;;;;5.05;4.65;;;20.60;99.90;;;;;;2114054;28;20711;-69
2022/06/29 00:46:20;;;;;;;5.00;4.60;;;20.60;99.90;;;;;;2113411;28;20115;-67
2022/06/29 00:47:22;;;;;;;4.88;4.35;;;20.60;99.90;;;;;;2113210;28;20031;-70
2022/06/29 00:48:22;;;;;;;4.70;4.05;;;20.60;99.90;;;;;;2114027;28;20024;-69
2022/06/29 00:49:25;;;;;;;5.10;4.70;;;20.60;99.90;;;;;;2113690;27;20023;-71
2022/06/29 00:50:30;;;;;;;4.90;4.50;;;20.70;99.90;;;;;;2113882;28;20035;-68
2022/06/29 00:51:35;;;;;;;4.72;4.32;;;20.70;99.90;;;;;;2114135;28;20151;-69
2022/06/29 00:52:39;;;;;;;4.60;4.30;;;20.70;99.90;;;;;;2113999;28;20028;-67
2022/06/29 00:53:41;;;;;;;4.45;4.15;;;20.70;99.90;;;;;;2114194;28;20889;-68
2022/06/29 00:54:51;;;;;;;4.90;4.50;;;20.70;99.90;;;;;;2113229;28;20046;-68
2022/06/29 00:55:55;;;;;;;5.00;4.60;;;20.70;99.90;;;;;;2113681;28;20034;-68
2022/06/29 00:56:58;;;;;;;4.70;4.40;;;20.70;99.90;;;;;;2113305;28;20031;-69
2022/06/29 00:58:03;;;;;;;5.00;4.60;;;20.80;99.90;;;;;;2113275;28;20558;-70
2022/06/29 00:59:05;;;;;;;5.30;4.80;;;20.80;99.90;;;;;;2113983;28;20073;-70
2022/06/29 01:00:06;;;;;;;5.10;4.68;;;20.80;99.90;;;;;;2113994;28;20039;-70
2022/06/29 01:01:08;;;;;;;5.75;5.10;;;20.80;99.90;;;;;;2113415;28;20031;-68
2022/06/29 01:02:09;;;;;;;5.10;4.70;;;20.80;99.90;;;;;;2113504;28;20039;-69
2022/06/29 01:03:10;;;;;;;5.22;4.82;;;20.80;99.90;;;;;;2114246;28;20111;-69
2022/06/29 01:04:11;;;;;;;5.60;5.07;;;20.90;99.90;;;;;;2113418;28;20490;-68
2022/06/29 01:05:13;;;;;;;4.95;4.63;;;20.90;99.90;;;;;;2113505;28;20027;-68
2022/06/29 01:06:14;;;;;;;5.60;5.10;;;20.90;99.90;;;;;;2113687;28;20028;-68
2022/06/29 01:07:18;;;;;;;5.72;4.80;;;20.90;99.90;;;;;;2105822;28;20543;-68
2022/06/29 01:08:18;;;;;;;5.50;4.63;;;20.90;99.90;;;;;;2106378;28;20036;-68
2022/06/29 01:09:19;;;;;;;5.28;4.88;;;20.90;99.90;;;;;;2114620;27;20435;-68
2022/06/29 01:10:21;;;;;;;5.53;5.10;;;20.90;99.90;;;;;;2114963;28;20028;-69
2022/06/29 01:11:21;;;;;;;5.28;4.78;;;20.90;99.90;;;;;;2114673;28;20031;-68
2022/06/29 01:12:23;;;;;;;5.28;4.88;;;20.90;99.90;;;;;;2114576;28;20031;-68
2022/06/29 01:13:24;;;;;;;5.20;4.70;;;20.90;99.90;;;;;;2114647;28;20073;-68
2022/06/29 01:14:25;;;;;;;5.20;4.80;;;20.90;99.90;;;;;;2114670;28;20047;-69
2022/06/29 01:15:26;;;;;;;5.30;4.90;;;21.00;99.90;;;;;;2115408;28;20012;-69
2022/06/29 01:16:27;;;;;;;5.90;5.40;;;20.90;99.90;;;;;;2115110;28;20515;-69
2022/06/29 01:17:28;;;;;;;5.35;4.88;;;21.00;99.90;;;;;;2115297;28;20031;-69
2022/06/29 01:18:28;;;;;;;5.20;4.70;;;20.90;99.90;;;;;;2115511;28;20086;-69
2022/06/29 01:19:29;;;;;;;5.35;4.95;;;21.00;99.90;;;;;;2115088;28;20027;-69
2022/06/29 01:20:30;;;;;;;5.35;4.88;;;21.00;99.90;;;;;;2114730;28;20381;-68
2022/06/29 01:21:33;;;;;;;5.60;5.20;;;21.00;99.90;;;;;;2115195;28;20039;-68
2022/06/29 01:22:34;;;;;;;6.65;5.25;;;21.00;99.90;;;;;;2114880;27;20069;-68
2022/06/29 01:23:35;;;;;;;5.55;5.07;;;21.00;99.90;;;;;;2115055;27;20079;-68
2022/06/29 01:24:36;;;;;;;6.00;5.50;;;21.00;99.90;;;;;;2114964;28;20463;-66
2022/06/29 01:25:37;;;;;;;5.50;5.10;;;21.00;99.90;;;;;;2114810;28;20933;-68
2022/06/29 01:26:38;;;;;;;5.30;4.90;;;21.00;99.90;;;;;;2114301;28;20031;-68
2022/06/29 01:27:38;;;;;;;5.43;5.00;;;21.00;99.90;;;;;;2114528;28;20031;-67
2022/06/29 01:28:44;;;;;;;5.30;4.90;;;21.00;99.90;;;;;;2114537;28;20020;-67
2022/06/29 01:29:47;;;;;;;5.63;5.10;;;21.00;99.90;;;;;;2113648;28;20535;-69
2022/06/29 01:30:47;;;;;;;5.88;5.38;;;21.00;99.90;;;;;;2113893;28;20024;-68
2022/06/29 01:31:54;;;;;;;5.57;5.18;;;21.00;99.90;;;;;;2114405;28;20106;-68
2022/06/29 01:32:54;;;;;;;6.13;5.53;;;21.00;99.90;;;;;;2114042;28;20116;-68
2022/06/29 01:33:55;;;;;;;6.15;5.50;;;21.00;99.90;;;;;;2105590;28;20024;-68
2022/06/29 01:34:56;;;;;;;5.70;5.20;;;21.00;99.90;;;;;;2113445;28;20366;-69
2022/06/29 01:35:56;;;;;;;5.95;5.30;;;21.10;99.90;;;;;;2113743;28;20501;-69
2022/06/29 01:37:01;;;;;;;6.43;5.25;;;21.10;99.90;;;;;;2105237;28;20024;-68
2022/06/29 01:38:02;;;;;;;5.70;5.30;;;21.00;99.90;;;;;;2105690;28;20064;-67
2022/06/29 01:39:03;;;;;;;6.18;5.60;;;21.10;99.90;;;;;;2112303;28;20035;-66
2022/06/29 01:40:05;;;;;;;5.88;5.40;;;21.00;99.90;;;;;;2113223;28;20483;-68
2022/06/29 01:41:08;;;;;;;6.20;5.60;;;21.00;99.90;;;;;;2104889;28;20139;-68
2022/06/29 01:42:09;;;;;;;5.60;5.20;;;21.00;99.90;;;;;;2113180;28;20030;-68
2022/06/29 01:43:10;;;;;;;5.70;5.30;;;21.10;99.90;;;;;;2113903;28;20024;-68
2022/06/29 01:44:11;;;;;;;5.93;5.43;;;21.00;99.90;;;;;;2113939;27;20020;-67
2022/06/29 01:45:11;;;;;;;5.97;5.57;;;21.00;99.90;;;;;;2113788;28;20089;-68
2022/06/29 01:46:12;;;;;;;6.20;5.60;;;21.00;99.90;;;;;;2113753;28;20055;-68
2022/06/29 01:47:12;;;;;;;5.35;4.95;;;21.00;99.90;;;;;;2113775;28;20092;-67
2022/06/29 01:48:13;;;;;;;6.10;5.60;;;21.00;99.90;;;;;;2113679;28;20037;-67
2022/06/29 01:49:14;;;;;;;6.15;5.65;;;21.00;99.90;;;;;;2112831;28;20032;-69
2022/06/29 01:50:15;;;;;;;5.95;5.45;;;21.00;99.90;;;;;;2112956;28;20089;-69
2022/06/29 01:51:15;;;;;;;5.90;5.40;;;20.90;99.90;;;;;;2112918;28;20020;-68
2022/06/29 01:52:16;;;;;;;6.32;5.82;;;20.90;99.90;;;;;;2113026;28;20463;-67
2022/06/29 01:53:17;;;;;;;6.18;5.65;;;20.90;99.90;;;;;;2113727;28;20020;-66
2022/06/29 01:54:18;;;;;;;6.28;5.65;;;20.90;99.90;;;;;;2113553;28;20724;-67
2022/06/29 01:55:19;;;;;;;5.97;5.28;;;20.90;99.90;;;;;;2104646;28;20042;-66
2022/06/29 01:56:19;;;;;;;6.00;5.40;;;20.90;99.90;;;;;;2104651;28;20562;-66
2022/06/29 01:57:20;;;;;;;6.00;5.50;;;20.90;99.90;;;;;;2113842;28;20079;-67
2022/06/29 01:58:21;;;;;;;5.68;5.18;;;20.90;99.90;;;;;;2112849;28;20030;-70
2022/06/29 01:59:22;;;;;;;6.30;5.70;;;20.80;99.90;;;;;;2112594;28;20738;-68
2022/06/29 02:00:22;;;;;;;6.30;5.80;;;20.90;99.90;;;;;;2112918;28;20038;-66
2022/06/29 02:01:23;;;;;;;5.97;5.47;;;20.80;99.90;;;;;;2112955;28;20028;-67
2022/06/29 02:02:24;;;;;;;5.82;5.32;;;20.90;99.90;;;;;;2113955;28;20031;-66
2022/06/29 02:03:25;;;;;;;6.22;5.70;;;20.80;99.90;;;;;;2114274;28;20034;-68
2022/06/29 02:04:25;;;;;;;6.03;5.53;;;20.90;99.90;;;;;;2113738;28;20076;-67
2022/06/29 02:05:26;;;;;;;6.32;5.82;;;20.80;99.90;;;;;;2114140;28;20024;-67
2022/06/29 02:06:27;;;;;;;6.13;5.63;;;20.80;99.90;;;;;;2113940;28;20024;-68
2022/06/29 02:07:27;;;;;;;6.30;5.78;;;20.80;99.90;;;;;;2112925;28;20512;-68
2022/06/29 02:08:28;;;;;;;6.25;5.65;;;20.80;99.90;;;;;;2112783;28;20468;-68
2022/06/29 02:09:29;;;;;;;6.45;5.93;;;20.80;99.90;;;;;;2113107;28;20038;-69
2022/06/29 02:10:30;;;;;;;6.10;5.60;;;20.80;99.90;;;;;;2113441;28;20019;-68
2022/06/29 02:11:31;;;;;;;6.25;5.68;;;20.80;99.90;;;;;;2112761;28;20677;-67
2022/06/29 02:12:31;;;;;;;6.07;5.57;;;20.80;99.90;;;;;;2104261;28;20090;-68
2022/06/29 02:13:32;;;;;;;6.05;5.55;;;20.80;99.90;;;;;;2112827;28;20027;-68
2022/06/29 02:14:33;;;;;;;8.57;5.80;;;20.80;99.90;;;;;;2113460;28;20031;-68
2022/06/29 02:15:33;;;;;;;6.70;6.00;;;20.80;99.90;;;;;;2113465;28;20039;-68
2022/06/29 02:16:34;;;;;;;6.38;5.88;;;20.80;99.90;;;;;;2113388;28;20027;-68
2022/06/29 02:17:35;;;;;;;6.60;6.03;;;20.80;99.90;;;;;;2113400;28;20666;-68
2022/06/29 02:18:35;;;;;;;6.82;6.10;;;20.80;99.90;;;;;;2113293;28;20111;-68
2022/06/29 02:19:36;;;;;;;6.45;5.82;;;20.80;99.90;;;;;;2113047;28;20090;-68
2022/06/29 02:20:37;;;;;;;6.63;6.03;;;20.80;99.90;;;;;;2113360;28;20032;-68
2022/06/29 02:21:38;;;;;;;7.60;5.60;;;20.80;99.90;;;;;;2113486;28;20418;-68
2022/06/29 02:22:39;;;;;;;6.60;6.00;;;20.80;99.90;;;;;;2113346;28;20016;-68
2022/06/29 02:23:39;;;;;;;6.70;6.10;;;20.80;99.90;;;;;;2113370;28;20095;-66
2022/06/29 02:24:40;;;;;;;6.78;6.18;;;20.80;99.90;;;;;;2112567;28;20023;-67
2022/06/29 02:25:41;;;;;;;6.50;6.00;;;20.70;99.90;;;;;;2112913;28;20519;-67
2022/06/29 02:26:41;;;;;;;6.65;6.05;;;20.80;99.90;;;;;;2113454;28;20032;-67
2022/06/29 02:27:45;;;;;;;6.70;6.10;;;20.80;99.90;;;;;;2113352;28;20022;-66
2022/06/29 02:28:45;;;;;;;6.53;5.93;;;20.80;99.90;;;;;;2113050;28;20066;-66
2022/06/29 02:29:46;;;;;;;6.47;5.88;;;20.70;99.90;;;;;;2113024;28;20512;-66
2022/06/29 02:34:44;;;;;;;7.75;6.05;;;20.70;99.90;;;;;;2113140;28;20026;-66
2022/06/29 02:35:45;;;;;;;6.43;5.93;;;20.70;99.90;;;;;;2113253;28;20114;-66
2022/06/29 02:36:46;;;;;;;6.80;6.20;;;20.70;99.90;;;;;;2112452;28;20019;-66
2022/06/29 02:37:46;;;;;;;8.23;7.03;;;20.70;99.90;;;;;;2112432;28;20035;-66
2022/06/29 02:38:47;;;;;;;6.82;6.30;;;20.70;99.90;;;;;;2112955;28;20126;-67
2022/06/29 02:39:48;;;;;;;6.80;6.20;;;20.70;99.90;;;;;;2112838;28;20115;-66
2022/06/29 02:40:48;;;;;;;6.70;6.10;;;20.70;99.90;;;;;;2113080;28;20031;-66
2022/06/29 02:41:49;;;;;;;6.70;6.10;;;20.70;99.90;;;;;;2113189;28;20421;-66
2022/06/29 02:42:50;;;;;;;6.47;5.88;;;20.70;99.90;;;;;;2112285;28;20029;-66
2022/06/29 02:43:51;;;;;;;6.38;5.88;;;20.70;99.90;;;;;;2112353;28;20038;-66
2022/06/29 02:44:51;;;;;;;6.40;5.90;;;20.70;99.90;;;;;;2113128;28;20024;-66
2022/06/29 02:45:52;;;;;;;6.13;5.63;;;20.70;99.90;;;;;;2113072;28;20063;-66
2022/06/29 02:46:53;;;;;;;6.88;6.28;;;20.70;99.90;;;;;;2112978;28;20024;-67
2022/06/29 02:47:53;;;;;;;7.00;6.40;;;20.70;99.90;;;;;;2112842;28;20119;-66
2022/06/29 02:48:54;;;;;;;7.20;6.50;;;20.70;99.90;;;;;;2113100;28;20445;-66
2022/06/29 02:49:55;;;;;;;6.97;6.28;;;20.70;99.90;;;;;;2112807;28;20043;-68
2022/06/29 02:50:55;;;;;;;7.18;6.57;;;20.70;99.90;;;;;;2112341;27;20023;-68
2022/06/29 02:51:56;;;;;;;7.40;6.10;;;20.70;99.90;;;;;;2112991;28;20041;-66
2022/06/29 02:52:57;;;;;;;6.78;6.18;;;20.70;99.90;;;;;;2113170;28;20186;-67
2022/06/29 02:53:57;;;;;;;6.68;6.07;;;20.70;99.90;;;;;;2113244;28;20015;-68
2022/06/29 02:54:58;;;;;;;7.07;6.47;;;20.70;99.90;;;;;;2113394;28;20144;-68
2022/06/29 02:55:58;;;;;;;6.80;6.18;;;20.70;99.90;;;;;;2112904;28;20035;-69
2022/06/29 02:56:59;;;;;;;7.13;6.53;;;20.70;99.90;;;;;;2112776;28;20081;-69
2022/06/29 02:58:00;;;;;;;7.20;6.50;;;20.60;99.90;;;;;;2113531;28;20027;-69
2022/06/29 02:59:00;;;;;;;7.65;6.95;;;20.60;99.90;;;;;;2113676;28;20027;-68
2022/06/29 03:00:01;;;;;;;7.07;6.47;;;20.60;99.90;;;;;;2113804;28;20537;-68
2022/06/29 03:01:02;;;;;;;7.80;6.65;;;20.60;99.90;;;;;;2115341;28;20091;-69
2022/06/29 03:02:03;;;;;;;7.25;6.55;;;20.60;99.90;;;;;;2114705;28;20671;-68
2022/06/29 03:03:04;;;;;;;8.15;6.53;;;20.60;99.90;;;;;;2114655;28;20035;-68
2022/06/29 03:04:04;;;;;;;7.57;6.88;;;20.60;99.90;;;;;;2113501;27;20059;-67
2022/06/29 03:05:06;;;;;;;8.32;6.70;;;20.60;99.90;;;;;;2113141;28;20027;-69
2022/06/29 03:06:07;;;;;;;7.03;6.43;;;20.60;99.90;;;;;;2112490;28;20020;-69
2022/06/29 03:07:07;;;;;;;8.02;6.80;;;20.60;99.90;;;;;;2112314;28;20512;-68
2022/06/29 03:08:08;;;;;;;8.52;7.72;;;20.60;99.90;;;;;;2112035;28;20027;-68
2022/06/29 03:09:09;;;;;;;7.55;6.85;;;20.70;99.90;;;;;;2111781;28;20103;-68
2022/06/29 03:10:09;;;;;;;8.80;7.80;;;20.60;99.90;;;;;;2112169;28;20504;-67
2022/06/29 03:11:11;;;;;;;7.75;6.95;;;20.60;99.90;;;;;;2112423;28;20080;-68
2022/06/29 03:12:12;;;;;;;8.55;7.60;;;20.70;99.90;;;;;;2112152;28;20027;-68
2022/06/29 03:13:12;;;;;;;8.07;7.38;;;20.60;99.90;;;;;;2112553;28;20019;-67
2022/06/29 03:14:13;;;;;;;8.23;7.43;;;20.60;99.90;;;;;;2113005;28;20149;-68
2022/06/29 03:15:13;;;;;;;7.80;7.10;;;20.60;99.90;;;;;;2113246;28;20115;-67
2022/06/29 03:16:14;;;;;;;10.32;7.22;;;20.60;99.90;;;;;;2113186;28;20031;-67
2022/06/29 03:17:15;;;;;;;7.50;6.90;;;20.60;99.90;;;;;;2112883;28;20557;-68
2022/06/29 03:18:16;;;;;;;8.18;7.10;;;20.60;99.90;;;;;;2112030;28;20035;-68
2022/06/29 03:19:16;;;;;;;7.65;7.03;;;20.70;99.90;;;;;;2111862;28;20058;-67
2022/06/29 03:20:17;;;;;;;8.27;7.50;;;20.70;99.90;;;;;;2112704;28;20024;-68
2022/06/29 03:21:18;;;;;;;7.80;7.20;;;20.70;99.90;;;;;;2112891;28;20040;-68
2022/06/29 03:22:19;;;;;;;8.02;7.07;;;20.70;99.90;;;;;;2112239;28;20497;-67
2022/06/29 03:23:19;;;;;;;8.18;7.47;;;20.70;99.90;;;;;;2112266;28;20027;-68
2022/06/29 03:24:20;;;;;;;9.85;8.85;;;20.70;99.90;;;;;;2112863;28;20023;-67
2022/06/29 03:25:21;;;;;;;8.70;7.90;;;20.70;99.90;;;;;;2112766;28;20070;-67
2022/06/29 03:26:21;;;;;;;9.07;8.02;;;20.70;99.90;;;;;;2113043;28;20032;-67
2022/06/29 03:27:22;;;;;;;8.82;8.02;;;20.70;99.90;;;;;;2112996;28;20039;-67
2022/06/29 03:28:23;;;;;;;8.30;7.60;;;20.70;99.90;;;;;;2112723;28;20027;-67
2022/06/29 03:29:23;;;;;;;8.80;7.90;;;20.70;99.90;;;;;;2112416;28;20024;-67
2022/06/29 03:30:24;;;;;;;8.52;7.60;;;20.70;99.90;;;;;;2112919;28;20030;-67
2022/06/29 03:31:24;;;;;;;8.43;7.63;;;20.70;99.90;;;;;;2112948;28;20034;-68
2022/06/29 03:32:25;;;;;;;7.93;7.22;;;20.70;99.90;;;;;;2112941;28;20062;-67
2022/06/29 03:33:26;;;;;;;8.00;7.30;;;20.70;99.90;;;;;;2112250;28;20110;-68
2022/06/29 03:34:26;;;;;;;8.07;7.38;;;20.70;99.90;;;;;;2112010;28;20031;-67
2022/06/29 03:35:27;;;;;;;7.85;7.15;;;20.70;99.90;;;;;;2112923;28;20058;-67
2022/06/29 03:36:29;;;;;;;7.93;7.22;;;20.70;99.90;;;;;;2112880;28;20549;-68
2022/06/29 03:37:30;;;;;;;7.68;7.07;;;20.70;99.90;;;;;;2112799;28;20027;-68
2022/06/29 03:38:31;;;;;;;7.43;6.82;;;20.70;99.90;;;;;;2112791;28;20022;-68
2022/06/29 03:39:31;;;;;;;7.97;7.28;;;20.70;99.90;;;;;;2112499;28;20118;-67
2022/06/29 03:40:32;;;;;;;7.90;7.15;;;20.70;99.90;;;;;;2112865;28;20027;-67
2022/06/29 03:41:33;;;;;;;7.82;7.13;;;20.70;99.90;;;;;;2112930;28;20473;-68
2022/06/29 03:42:33;;;;;;;8.13;7.32;;;20.70;99.90;;;;;;2112986;28;20031;-67
2022/06/29 03:43:34;;;;;;;8.10;7.40;;;20.70;99.90;;;;;;2112850;28;20053;-69
2022/06/29 03:44:34;;;;;;;8.48;7.65;;;20.70;99.90;;;;;;2112698;28;20401;-69
2022/06/29 03:45:35;;;;;;;8.60;7.80;;;20.70;99.90;;;;;;2112819;28;20065;-68
2022/06/29 03:46:36;;;;;;;8.38;7.60;;;20.70;99.90;;;;;;2112818;28;20032;-68
2022/06/29 03:47:36;;;;;;;7.70;7.00;;;20.70;99.90;;;;;;2112058;28;20063;-69
2022/06/29 03:48:37;;;;;;;7.93;7.15;;;20.70;99.90;;;;;;2112019;28;20062;-68
2022/06/29 03:49:38;;;;;;;8.82;8.02;;;20.70;99.90;;;;;;2112530;28;20496;-71
2022/06/29 03:50:38;;;;;;;8.98;8.10;;;20.70;99.90;;;;;;2113004;28;20079;-68
2022/06/29 03:51:40;;;;;;;8.20;7.50;;;20.70;99.90;;;;;;2112932;28;20027;-68
2022/06/29 03:52:41;;;;;;;8.43;7.72;;;20.70;99.90;;;;;;2112330;28;20155;-71
2022/06/29 03:53:41;;;;;;;8.73;7.93;;;20.70;99.90;;;;;;2112378;28;20171;-68
2022/06/29 03:54:42;;;;;;;9.32;8.48;;;20.70;99.90;;;;;;2112709;28;20688;-68
2022/06/29 03:55:43;;;;;;;9.07;8.18;;;20.70;99.90;;;;;;2112836;28;20102;-68
2022/06/29 03:56:43;;;;;;;8.95;8.02;;;20.70;99.90;;;;;;2112909;28;20024;-68
2022/06/29 03:57:44;;;;;;;9.10;8.30;;;20.70;99.90;;;;;;2112915;28;20380;-67
2022/06/29 03:58:45;;;;;;;8.60;7.78;;;20.70;99.90;;;;;;2112723;28;20489;-67
2022/06/29 03:59:45;;;;;;;8.88;8.07;;;20.70;99.90;;;;;;2112561;28;20059;-68
2022/06/29 04:00:46;;;;;;;8.90;8.10;;;20.60;99.90;;;;;;2112916;28;20028;-68
2022/06/29 04:01:47;;;;;;;9.07;8.05;;;20.60;99.90;;;;;;2112736;28;20024;-68
2022/06/29 04:02:47;;;;;;;8.90;8.05;;;20.60;99.90;;;;;;2113331;28;20802;-68
2022/06/29 04:03:48;;;;;;;8.95;8.15;;;20.60;99.90;;;;;;2113795;28;20038;-68
2022/06/29 04:04:49;;;;;;;9.30;8.40;;;20.60;99.90;;;;;;2114484;28;20062;-68
2022/06/29 04:05:49;;;;;;;9.95;8.95;;;20.60;99.90;;;;;;2114438;28;20026;-69
2022/06/29 04:06:50;;;;;;;9.48;8.65;;;20.60;99.90;;;;;;2114469;28;20555;-70
2022/06/29 04:07:51;;;;;;;9.30;8.40;;;20.60;99.90;;;;;;2114322;28;20036;-70
2022/06/29 04:08:51;;;;;;;9.70;8.80;;;20.60;99.90;;;;;;2114298;28;20224;-70
2022/06/29 04:09:59;;;;;;;10.82;9.15;;;20.60;99.90;;;;;;2114353;28;20019;-70
2022/06/29 04:11:00;;;;;;;9.40;8.55;;;20.60;99.90;;;;;;2114520;28;20028;-69
2022/06/29 04:12:00;;;;;;;10.02;8.52;;;20.60;99.90;;;;;;2114539;28;20512;-67
2022/06/29 04:13:01;;;;;;;9.60;8.60;;;20.60;99.90;;;;;;2114451;28;20025;-67
2022/06/29 04:14:02;;;;;;;9.05;8.05;;;20.60;99.90;;;;;;2114543;27;20027;-67
2022/06/29 04:15:05;;;;;;;10.23;9.23;;;20.60;99.90;;;;;;2114389;28;20027;-67
2022/06/29 04:16:06;;;;;;;9.52;8.55;;;20.60;99.90;;;;;;2114325;28;20019;-69
2022/06/29 04:17:06;;;;;;;9.60;8.75;;;20.60;99.90;;;;;;2114229;28;20499;-66
2022/06/29 04:18:07;;;;;;;9.48;8.57;;;20.60;99.90;;;;;;2114180;28;20485;-67
2022/06/29 04:19:08;;;;;;;9.65;8.75;;;20.60;99.90;;;;;;2113893;28;20119;-67
2022/06/29 04:21:05;;;;;;;10.40;9.45;;;20.60;99.90;;;;;;2114347;28;20023;-67
2022/06/29 04:21:30;;;;;;;10.25;9.35;;;20.60;99.90;;;;;;2114298;28;20568;-68
2022/06/29 04:22:31;;;;;;;10.85;9.85;;;20.60;99.90;;;;;;2114290;28;20031;-68
2022/06/29 04:23:31;;;;;;;10.55;9.55;;;20.60;99.90;;;;;;2114324;28;20553;-68
2022/06/29 04:24:32;;;;;;;10.23;9.32;;;20.70;99.90;;;;;;2115984;27;20059;-69
2022/06/29 04:25:33;;;;;;;9.50;8.60;;;20.70;99.90;;;;;;2116798;28;20035;-68
2022/06/29 04:26:33;;;;;;;9.68;8.77;;;20.70;99.90;;;;;;2116627;28;20493;-67
2022/06/29 04:27:34;;;;;;;9.95;8.95;;;20.70;99.90;;;;;;2116509;28;20031;-67
2022/06/29 04:28:34;;;;;;;9.82;8.80;;;20.70;99.90;;;;;;2116359;28;20808;-67
2022/06/29 04:29:35;;;;;;;9.80;8.90;;;20.70;99.90;;;;;;2116837;28;20123;-68
2022/06/29 04:30:36;;;;;;;9.30;8.50;;;20.70;99.90;;;;;;2116713;28;20023;-66
2022/06/29 04:31:37;;;;;;;9.55;8.63;;;20.70;99.90;;;;;;2116265;28;20540;-69
2022/06/29 04:32:40;;;;;;;11.18;9.73;;;20.70;99.90;;;;;;2117094;28;20023;-67
2022/06/29 04:33:41;;;;;;;10.25;9.32;;;20.70;99.90;;;;;;2115961;28;20388;-67
2022/06/29 04:34:42;;;;;;;9.90;9.00;;;20.70;99.90;;;;;;2115823;28;20024;-70
2022/06/29 04:35:46;;;;;;;10.20;9.20;;;20.70;99.90;;;;;;2116355;28;20797;-67
2022/06/29 04:36:47;;;;;;;11.27;9.52;;;20.70;99.90;;;;;;2116411;27;20023;-68
2022/06/29 04:37:47;;;;;;;10.18;9.27;;;20.70;99.90;;;;;;2115254;28;20469;-68
2022/06/29 04:38:48;;;;;;;10.07;9.18;;;20.70;99.90;;;;;;2115544;28;20031;-68
2022/06/29 04:39:48;;;;;;;9.93;8.93;;;20.60;99.90;;;;;;2106577;28;20032;-66
2022/06/29 04:40:52;;;;;;;10.05;9.13;;;20.70;99.90;;;;;;2114427;28;20027;-67
2022/06/29 04:41:53;;;;;;;10.68;9.57;;;20.70;99.90;;;;;;2115033;28;20071;-68
2022/06/29 04:42:54;;;;;;;10.68;9.68;;;20.70;99.90;;;;;;2114327;28;20484;-68
2022/06/29 04:43:57;;;;;;;10.07;9.10;;;20.60;99.90;;;;;;2114358;28;20097;-67
2022/06/29 04:44:58;;;;;;;10.15;9.25;;;20.60;99.90;;;;;;2114750;27;20036;-68
2022/06/29 04:47:18;;;;;;;10.73;9.73;;;20.60;99.90;;;;;;2114578;28;20055;-69
2022/06/29 04:48:19;;;;;;;10.60;9.60;;;20.60;99.90;;;;;;2106658;28;20282;-67
2022/06/29 04:49:20;;;;;;;10.52;9.57;;;20.60;99.90;;;;;;2106772;28;20552;-67
2022/06/29 04:50:21;;;;;;;10.70;9.70;;;20.60;99.90;;;;;;2115890;27;20035;-67
2022/06/29 04:51:23;;;;;;;12.43;10.98;;;20.60;99.90;;;;;;2114434;28;20027;-69
2022/06/29 04:52:24;;;;;;;13.27;10.70;;;20.60;99.90;;;;;;2113922;28;20381;-66
2022/06/29 04:53:25;;;;;;;11.68;10.48;;;20.50;99.90;;;;;;2113865;28;20387;-64
2022/06/29 04:54:26;;;;;;;11.95;10.75;;;20.50;99.90;;;;;;2113725;28;20034;-66
2022/06/29 04:55:29;;;;;;;11.95;10.73;;;20.50;99.90;;;;;;2114456;28;20599;-67
2022/06/29 04:56:34;;;;;;;11.20;10.20;;;20.50;99.90;;;;;;2114966;28;20114;-66
2022/06/29 04:57:35;;;;;;;11.88;10.77;;;20.50;99.90;;;;;;2115020;28;20032;-66
2022/06/29 04:58:36;;;;;;;12.38;11.13;;;20.50;99.90;;;;;;2114881;28;20084;-65
2022/06/29 04:59:36;;;;;;;12.32;11.13;;;20.50;99.90;;;;;;2113906;28;20081;-65
2022/06/29 05:00:37;;;;;;;11.90;10.70;;;20.50;99.90;;;;;;2114439;28;20055;-66
2022/06/29 05:01:38;;;;;;;11.68;10.48;;;20.60;99.90;;;;;;2114383;28;20032;-66
2022/06/29 05:02:39;;;;;;;12.48;11.07;;;20.60;99.90;;;;;;2113851;28;20032;-67
2022/06/29 05:03:39;;;;;;;12.27;10.90;;;20.60;99.90;;;;;;2113965;28;20023;-67
2022/06/29 05:04:40;;;;;;;12.90;10.98;;;20.70;99.90;;;;;;2114696;28;20106;-65
2022/06/29 05:05:41;;;;;;;11.88;10.57;;;20.70;99.90;;;;;;2114006;28;20393;-66
2022/06/29 05:06:41;;;;;;;11.30;10.30;;;20.70;99.90;;;;;;2114208;28;20501;-66
2022/06/29 05:07:42;;;;;;;11.40;10.30;;;20.70;99.90;;;;;;2113928;28;20019;-64
2022/06/29 05:08:43;;;;;;;10.90;9.90;;;20.70;99.90;;;;;;2114019;28;20702;-65
2022/06/29 05:09:46;;;;;;;11.23;10.05;;;20.70;99.90;;;;;;2113802;28;20028;-65
2022/06/29 05:10:47;;;;;;;12.48;10.90;;;20.70;99.90;;;;;;2114680;28;20447;-65
2022/06/29 05:11:48;;;;;;;12.32;11.13;;;20.70;99.90;;;;;;2114809;28;20035;-65
2022/06/29 05:12:49;;;;;;;12.18;10.98;;;20.80;99.90;;;;;;2113887;28;20028;-66
2022/06/29 05:13:49;;;;;;;11.55;10.35;;;20.70;99.90;;;;;;2113810;28;20028;-66
2022/06/29 05:14:50;;;;;;;10.43;9.50;;;20.80;99.90;;;;;;2113921;28;20036;-69
2022/06/29 05:15:51;;;;;;;10.93;9.82;;;20.70;99.90;;;;;;2114259;28;20020;-67
2022/06/29 05:16:52;;;;;;;12.40;10.77;;;20.70;99.90;;;;;;2114439;28;20032;-66
2022/06/29 05:17:52;;;;;;;11.05;9.98;;;20.70;99.90;;;;;;2114191;28;20028;-66
2022/06/29 05:18:53;;;;;;;10.77;9.77;;;20.70;99.90;;;;;;2113894;28;20425;-66
2022/06/29 05:19:55;;;;;;;11.25;10.15;;;20.60;99.90;;;;;;2104935;28;20090;-66
2022/06/29 05:20:56;;;;;;;11.13;10.00;;;20.60;99.90;;;;;;2097031;28;20057;-65
2022/06/29 05:21:57;;;;;;;11.73;10.63;;;20.60;99.90;;;;;;2106134;28;20077;-66